createdAt,value
2022-09-06T00:00:30.162Z,9.76
2022-09-06T00:02:58.636Z,9.72
2022-09-06T00:05:28.405Z,9.67
2022-09-06T00:08:00.163Z,9.64
2022-09-06T00:10:29.727Z,9.62
2022-09-06T00:13:05.166Z,9.60
2022-09-06T00:15:34.487Z,9.56
2022-09-06T00:18:06.354Z,9.55
2022-09-06T00:20:35.386Z,9.51
2022-09-06T00:23:06.044Z,9.47
2022-09-06T00:25:35.290Z,9.45
2022-09-06T00:28:06.038Z,9.43
2022-09-06T00:30:35.243Z,9.41
2022-09-06T00:33:04.008Z,9.38
2022-09-06T00:35:32.391Z,9.34
2022-09-06T00:38:01.990Z,9.31
2022-09-06T00:40:34.119Z,9.26
2022-09-06T00:43:02.227Z,9.21
2022-09-06T00:45:31.843Z,9.18
2022-09-06T00:48:01.953Z,9.15
2022-09-06T00:50:30.335Z,9.12
2022-09-06T00:52:58.506Z,9.08
2022-09-06T00:55:26.628Z,9.04
2022-09-06T00:57:55.901Z,9.01
2022-09-06T01:00:24.354Z,8.99
2022-09-06T01:02:53.905Z,8.98
2022-09-06T01:05:29.203Z,8.96
2022-09-06T01:08:14.621Z,8.90
2022-09-06T01:11:04.254Z,8.87
2022-09-06T01:13:41.446Z,8.86
2022-09-06T01:16:18.455Z,8.86
2022-09-06T01:19:05.580Z,8.86
2022-09-06T01:21:51.010Z,8.87
2022-09-06T01:24:37.411Z,8.88
2022-09-06T01:27:11.255Z,8.88
2022-09-06T01:29:45.175Z,8.88
2022-09-06T01:32:50.776Z,8.89
2022-09-06T01:35:30.425Z,8.89
2022-09-06T01:38:00.843Z,8.89
2022-09-06T01:40:29.426Z,8.89
2022-09-06T01:42:58.546Z,8.87
2022-09-06T01:45:56.821Z,8.86
2022-09-06T01:48:37.810Z,8.86
2022-09-06T01:51:33.507Z,8.88
2022-09-06T01:54:09.098Z,8.90
2022-09-06T01:56:55.713Z,8.91
2022-09-06T01:59:51.562Z,8.93
2022-09-06T02:02:25.307Z,8.97
2022-09-06T02:05:01.519Z,9.00
2022-09-06T02:07:32.902Z,9.05
2022-09-06T02:10:08.932Z,9.10
2022-09-06T02:12:41.336Z,9.16
2022-09-06T02:15:20.127Z,9.22
2022-09-06T02:17:53.929Z,9.23
2022-09-06T02:20:26.939Z,9.23
2022-09-06T02:22:57.957Z,9.21
2022-09-06T02:25:32.374Z,9.22
2022-09-06T02:28:00.803Z,9.20
2022-09-06T02:30:29.557Z,9.18
2022-09-06T02:33:08.366Z,9.15
2022-09-06T02:35:44.996Z,9.12
2022-09-06T02:38:13.924Z,9.08
2022-09-06T02:40:44.289Z,9.05
2022-09-06T02:43:12.420Z,9.03
2022-09-06T02:45:40.514Z,9.02
2022-09-06T02:48:09.071Z,8.98
2022-09-06T02:50:37.453Z,8.94
2022-09-06T02:53:11.974Z,8.90
2022-09-06T02:55:41.083Z,8.87
2022-09-06T02:58:11.440Z,8.85
2022-09-06T03:00:39.975Z,8.84
2022-09-06T03:03:08.660Z,8.82
2022-09-06T03:05:36.785Z,8.80
2022-09-06T03:08:05.272Z,8.74
2022-09-06T03:10:33.597Z,8.73
2022-09-06T03:13:01.762Z,8.70
2022-09-06T03:15:29.830Z,8.67
2022-09-06T03:17:59.709Z,8.65
2022-09-06T03:20:27.750Z,8.62
2022-09-06T03:22:56.601Z,8.60
2022-09-06T03:25:25.899Z,8.57
2022-09-06T03:27:56.428Z,8.57
2022-09-06T03:30:24.657Z,8.57
2022-09-06T03:32:52.712Z,8.57
2022-09-06T03:35:20.745Z,8.57
2022-09-06T03:37:48.917Z,8.57
2022-09-06T03:40:17.545Z,8.57
2022-09-06T03:42:46.702Z,8.57
2022-09-06T03:45:15.120Z,8.58
2022-09-06T03:47:43.144Z,8.58
2022-09-06T03:50:11.522Z,8.58
2022-09-06T03:52:40.851Z,8.58
2022-09-06T03:55:09.653Z,8.57
2022-09-06T03:57:38.044Z,8.59
2022-09-06T04:00:06.756Z,8.60
2022-09-06T04:02:39.569Z,8.64
2022-09-06T04:05:08.090Z,8.68
2022-09-06T04:07:38.359Z,8.73
2022-09-06T04:10:07.315Z,8.78
2022-09-06T04:12:35.422Z,8.82
2022-09-06T04:15:03.971Z,8.86
2022-09-06T04:17:31.968Z,8.90
2022-09-06T04:20:00.043Z,8.93
2022-09-06T04:22:28.219Z,8.96
2022-09-06T04:24:56.495Z,8.99
2022-09-06T04:27:24.661Z,9.03
2022-09-06T04:29:52.735Z,9.06
2022-09-06T04:32:20.807Z,9.10
2022-09-06T04:34:48.984Z,9.14
2022-09-06T04:37:20.222Z,9.18
2022-09-06T04:39:48.338Z,9.24
2022-09-06T04:42:16.361Z,9.30
2022-09-06T04:44:44.438Z,9.38
2022-09-06T04:47:15.512Z,9.45
2022-09-06T04:49:44.469Z,9.49
2022-09-06T04:52:12.931Z,9.54
2022-09-06T04:54:41.017Z,9.59
2022-09-06T04:57:09.600Z,9.64
2022-09-06T04:59:37.780Z,9.69
2022-09-06T05:02:05.981Z,9.76
2022-09-06T05:04:34.217Z,10.17
2022-09-06T05:07:05.379Z,11.26
2022-09-06T05:09:34.653Z,12.48
2022-09-06T05:12:03.526Z,13.58
2022-09-06T05:14:31.566Z,14.41
2022-09-06T05:16:59.574Z,14.70
2022-09-06T05:19:27.665Z,14.84
2022-09-06T05:21:55.934Z,14.91
2022-09-06T05:24:24.047Z,14.93
2022-09-06T05:26:52.483Z,14.89
2022-09-06T05:29:20.761Z,14.87
2022-09-06T05:31:48.926Z,14.85
2022-09-06T05:34:17.518Z,14.89
2022-09-06T05:36:46.408Z,15.40
2022-09-06T05:39:14.705Z,16.38
2022-09-06T05:41:43.265Z,17.26
2022-09-06T05:44:11.537Z,18.00
2022-09-06T05:46:46.444Z,18.55
2022-09-06T05:49:14.539Z,18.58
2022-09-06T05:51:42.750Z,18.34
2022-09-06T05:54:12.120Z,18.09
2022-09-06T05:56:40.135Z,17.82
2022-09-06T05:59:08.362Z,17.55
2022-09-06T06:01:36.579Z,17.31
2022-09-06T06:04:05.759Z,17.10
2022-09-06T06:06:34.776Z,16.92
2022-09-06T06:09:02.897Z,16.71
2022-09-06T06:11:31.597Z,16.67
2022-09-06T06:13:59.752Z,16.99
2022-09-06T06:16:27.967Z,16.95
2022-09-06T06:18:56.501Z,16.87
2022-09-06T06:21:27.596Z,16.79
2022-09-06T06:23:58.407Z,16.69
2022-09-06T06:26:28.502Z,16.83
2022-09-06T06:28:58.107Z,17.29
2022-09-06T06:31:26.312Z,17.28
2022-09-06T06:33:54.555Z,17.09
2022-09-06T06:36:25.233Z,16.92
2022-09-06T06:38:55.529Z,16.76
2022-09-06T06:41:27.023Z,16.61
2022-09-06T06:44:04.045Z,16.51
2022-09-06T06:46:37.491Z,16.46
2022-09-06T06:49:05.719Z,16.47
2022-09-06T06:51:38.318Z,16.47
2022-09-06T06:54:06.675Z,16.45
2022-09-06T06:56:37.421Z,16.44
2022-09-06T06:59:07.986Z,16.42
2022-09-06T07:01:36.686Z,16.40
2022-09-06T07:04:05.724Z,16.41
2022-09-06T07:12:25.459Z,16.50
2022-09-06T07:14:53.900Z,16.54
2022-09-06T07:17:22.169Z,16.59
2022-09-06T07:22:39.377Z,16.67
2022-09-06T07:25:09.491Z,16.71
2022-09-06T07:27:52.862Z,16.73
2022-09-06T07:30:21.436Z,16.71
2022-09-06T07:32:49.509Z,16.69
2022-09-06T07:35:17.683Z,16.68
2022-09-06T07:37:56.410Z,16.63
2022-09-06T07:40:27.032Z,16.59
2022-09-06T07:42:59.658Z,16.60
2022-09-06T07:45:27.790Z,16.60
2022-09-06T07:47:59.853Z,16.59
2022-09-06T07:50:47.736Z,16.61
2022-09-06T07:53:24.542Z,16.65
2022-09-06T07:56:00.836Z,16.70
2022-09-06T07:58:30.336Z,16.77
2022-09-06T08:01:25.722Z,16.82
2022-09-06T08:03:54.211Z,16.86
2022-09-06T08:06:23.747Z,16.92
2022-09-06T08:08:59.797Z,16.99
2022-09-06T08:11:31.131Z,17.05
2022-09-06T08:14:00.877Z,17.12
2022-09-06T08:16:30.694Z,17.15
2022-09-06T08:19:01.097Z,17.20
2022-09-06T08:21:32.464Z,17.23
2022-09-06T08:24:05.196Z,17.30
2022-09-06T08:26:36.441Z,17.42
2022-09-06T08:29:06.994Z,17.52
2022-09-06T08:31:38.188Z,17.62
2022-09-06T08:34:06.706Z,17.82
2022-09-06T08:36:35.798Z,18.00
2022-09-06T08:39:06.670Z,18.18
2022-09-06T08:41:46.678Z,18.42
2022-09-06T08:47:16.201Z,18.86
2022-09-06T08:49:53.178Z,19.03
2022-09-06T08:52:26.897Z,19.20
2022-09-06T08:55:07.352Z,19.30
2022-09-06T08:57:54.378Z,19.38
2022-09-06T09:00:23.268Z,19.47
2022-09-06T09:03:06.983Z,19.52
2022-09-06T09:05:37.621Z,19.52
2022-09-06T09:08:27.846Z,19.39
2022-09-06T09:11:03.755Z,19.26
2022-09-06T09:13:41.044Z,19.22
2022-09-06T09:16:10.272Z,19.20
2022-09-06T09:18:42.522Z,19.12
2022-09-06T09:21:11.297Z,19.03
2022-09-06T09:23:39.673Z,18.95
2022-09-06T09:26:15.161Z,18.91
2022-09-06T09:29:06.157Z,18.88
2022-09-06T09:31:40.804Z,18.79
2022-09-06T09:34:29.597Z,18.79
2022-09-06T09:40:26.923Z,18.77
2022-09-06T09:43:09.362Z,18.80
2022-09-06T09:45:37.510Z,18.86
2022-09-06T09:48:27.247Z,18.89
2022-09-06T09:50:56.390Z,18.90
2022-09-06T09:53:24.917Z,18.89
2022-09-06T09:55:59.739Z,18.88
2022-09-06T09:58:30.365Z,18.85
2022-09-06T10:01:30.341Z,18.81
2022-09-06T10:09:39.730Z,18.74
2022-09-06T10:12:08.189Z,18.72
2022-09-06T10:14:45.720Z,18.70
2022-09-06T10:17:22.129Z,18.57
2022-09-06T10:19:50.482Z,18.46
2022-09-06T10:22:32.904Z,18.30
2022-09-06T10:25:19.595Z,18.23
2022-09-06T10:28:17.770Z,18.20
2022-09-06T10:31:12.299Z,18.20
2022-09-06T10:33:52.789Z,18.17
2022-09-06T10:36:30.029Z,18.20
2022-09-06T10:39:09.552Z,18.22
2022-09-06T10:42:12.185Z,18.26
2022-09-06T10:45:03.645Z,18.36
2022-09-06T10:47:48.722Z,18.46
2022-09-06T10:50:17.244Z,18.51
2022-09-06T10:52:49.170Z,18.49
2022-09-06T10:55:19.004Z,18.44
2022-09-06T11:00:47.475Z,18.37
2022-09-06T11:06:20.023Z,18.31
2022-09-06T11:08:53.566Z,18.29
2022-09-06T11:11:35.948Z,18.23
2022-09-06T11:14:12.450Z,18.16
2022-09-06T11:16:57.826Z,18.15
2022-09-06T11:19:33.263Z,18.14
2022-09-06T11:22:38.836Z,18.11
2022-09-06T11:25:15.655Z,18.09
2022-09-06T11:27:47.918Z,18.09
2022-09-06T11:30:18.109Z,18.03
2022-09-06T11:32:50.322Z,18.03
2022-09-06T11:35:28.952Z,18.01
2022-09-06T11:38:17.176Z,17.98
2022-09-06T11:41:07.210Z,17.97
2022-09-06T11:43:45.168Z,17.96
2022-09-06T11:46:35.118Z,17.95
2022-09-06T11:49:07.604Z,17.92
2022-09-06T11:51:45.786Z,17.90
2022-09-06T11:54:21.890Z,17.94
2022-09-06T11:57:09.658Z,17.95
2022-09-06T11:59:51.633Z,17.94
2022-09-06T12:02:36.880Z,17.95
2022-09-06T12:05:07.657Z,17.96
2022-09-06T12:08:07.809Z,17.96
2022-09-06T12:10:42.200Z,17.96
2022-09-06T12:13:47.612Z,17.98
2022-09-06T12:16:18.516Z,18.02
2022-09-06T12:18:49.816Z,18.00
2022-09-06T12:21:36.012Z,18.05
2022-09-06T12:24:06.536Z,18.04
2022-09-06T12:26:54.448Z,18.05
2022-09-06T12:29:26.823Z,18.04
2022-09-06T12:31:58.039Z,18.04
2022-09-06T12:34:31.686Z,18.02
2022-09-06T12:37:04.886Z,18.00
2022-09-06T12:39:34.519Z,17.96
2022-09-06T12:42:05.608Z,17.93
2022-09-06T12:44:44.159Z,17.91
2022-09-06T12:47:25.937Z,17.89
2022-09-06T12:50:18.859Z,17.88
2022-09-06T12:53:01.883Z,17.89
2022-09-06T12:55:36.454Z,17.87
2022-09-06T12:58:07.337Z,17.85
2022-09-06T13:00:41.222Z,17.83
2022-09-06T13:03:50.814Z,17.81
2022-09-06T13:06:27.026Z,17.78
2022-09-06T13:08:58.120Z,17.77
2022-09-06T13:11:31.651Z,17.76
2022-09-06T13:14:00.813Z,17.75
2022-09-06T13:16:37.148Z,17.76
2022-09-06T13:19:16.582Z,17.75
2022-09-06T13:21:46.460Z,17.73
2022-09-06T13:24:19.956Z,17.69
2022-09-06T13:26:48.052Z,17.70
2022-09-06T13:29:20.082Z,17.71
2022-09-06T13:31:57.058Z,17.69
2022-09-06T13:34:33.109Z,17.68
2022-09-06T13:37:05.624Z,17.64
2022-09-06T13:39:42.219Z,17.61
2022-09-06T13:42:24.925Z,17.62
2022-09-06T13:44:53.131Z,17.61
2022-09-06T13:47:21.308Z,17.59
2022-09-06T13:49:52.094Z,17.60
2022-09-06T13:52:20.315Z,17.60
2022-09-06T13:54:48.958Z,17.61
2022-09-06T13:57:21.062Z,17.61
2022-09-06T13:59:52.321Z,17.62
2022-09-06T14:02:21.166Z,17.64
2022-09-06T14:04:49.883Z,17.64
2022-09-06T14:07:18.065Z,17.65
2022-09-06T14:09:47.585Z,17.64
2022-09-06T14:12:15.792Z,17.64
2022-09-06T14:14:44.842Z,17.64
2022-09-06T14:17:13.563Z,17.64
2022-09-06T14:19:41.626Z,17.65
2022-09-06T14:22:09.854Z,17.68
2022-09-06T14:24:38.232Z,17.69
2022-09-06T14:27:07.531Z,17.71
2022-09-06T14:29:36.366Z,17.69
2022-09-06T14:32:04.597Z,17.67
2022-09-06T14:34:32.972Z,17.66
2022-09-06T14:37:01.144Z,17.64
2022-09-06T14:39:29.573Z,17.63
2022-09-06T14:41:59.698Z,17.60
2022-09-06T14:44:27.812Z,17.59
2022-09-06T14:46:55.988Z,17.56
2022-09-06T14:49:25.080Z,17.54
2022-09-06T14:51:53.873Z,17.52
2022-09-06T14:54:24.130Z,17.52
2022-09-06T14:56:55.545Z,17.51
2022-09-06T14:59:23.623Z,17.50
2022-09-06T15:01:51.802Z,17.52
2022-09-06T15:04:19.891Z,17.52
2022-09-06T15:06:48.497Z,17.50
2022-09-06T15:09:18.110Z,17.50
2022-09-06T15:11:49.491Z,17.49
2022-09-06T15:14:20.530Z,17.49
2022-09-06T15:16:54.900Z,17.49
2022-09-06T15:19:25.834Z,17.48
2022-09-06T15:21:55.601Z,17.46
2022-09-06T15:24:23.979Z,17.43
2022-09-06T15:26:52.684Z,17.41
2022-09-06T15:29:21.137Z,17.38
2022-09-06T15:31:50.801Z,17.37
2022-09-06T15:34:24.725Z,17.35
2022-09-06T15:36:53.885Z,17.34
2022-09-06T15:39:21.980Z,17.32
2022-09-06T15:41:51.848Z,17.31
2022-09-06T15:44:21.734Z,17.28
2022-09-06T15:46:51.150Z,17.25
2022-09-06T15:49:27.553Z,17.20
2022-09-06T15:51:58.374Z,17.19
2022-09-06T15:54:46.288Z,17.18
2022-09-06T15:57:16.715Z,17.16
2022-09-06T15:59:45.574Z,17.13
2022-09-06T16:02:14.396Z,17.10
2022-09-06T16:04:42.769Z,17.06
2022-09-06T16:07:13.855Z,17.02
2022-09-06T16:09:42.903Z,16.96
2022-09-06T16:12:12.097Z,16.89
2022-09-06T16:14:40.372Z,16.81
2022-09-06T16:17:08.639Z,16.71
2022-09-06T16:19:37.029Z,16.60
2022-09-06T16:22:05.205Z,16.53
2022-09-06T16:24:33.680Z,16.43
2022-09-06T16:27:02.889Z,16.34
2022-09-06T16:29:32.289Z,16.23
2022-09-06T16:32:00.860Z,16.15
2022-09-06T16:34:29.193Z,16.06
2022-09-06T16:36:57.467Z,15.98
2022-09-06T16:39:25.614Z,15.90
2022-09-06T16:41:53.866Z,15.83
2022-09-06T16:44:22.138Z,15.75
2022-09-06T16:46:50.906Z,15.68
2022-09-06T16:49:19.900Z,15.61
2022-09-06T16:51:49.803Z,15.55
2022-09-06T16:54:19.016Z,15.46
2022-09-06T16:56:47.777Z,15.40
2022-09-06T16:59:17.578Z,15.32
2022-09-06T17:01:46.436Z,15.23
2022-09-06T17:04:15.145Z,15.15
2022-09-06T17:06:47.175Z,15.06
2022-09-06T17:09:19.369Z,14.99
2022-09-06T17:11:51.494Z,14.88
2022-09-06T17:14:19.767Z,14.83
2022-09-06T17:17:06.420Z,14.76
2022-09-06T17:19:37.009Z,14.67
2022-09-06T17:22:05.482Z,14.60
2022-09-06T17:24:34.187Z,14.53
2022-09-06T17:27:02.339Z,14.45
2022-09-06T17:29:31.541Z,14.39
2022-09-06T17:32:00.223Z,14.33
2022-09-06T17:34:29.016Z,14.27
2022-09-06T17:36:57.182Z,14.22
2022-09-06T17:39:25.303Z,14.15
2022-09-06T17:41:54.546Z,14.10
2022-09-06T17:44:25.579Z,14.04
2022-09-06T17:49:43.683Z,13.92
2022-09-06T17:52:12.550Z,13.87
2022-09-06T17:54:40.813Z,13.82
2022-09-06T17:57:09.095Z,13.79
2022-09-06T17:59:38.429Z,13.75
2022-09-06T18:02:06.664Z,13.71
2022-09-06T18:04:35.329Z,13.67
2022-09-06T18:07:03.725Z,13.64
2022-09-06T18:09:32.104Z,13.60
2022-09-06T18:12:00.272Z,13.58
2022-09-06T18:14:28.934Z,13.53
2022-09-06T18:16:57.420Z,13.49
2022-09-06T18:19:27.146Z,13.45
2022-09-06T18:21:57.530Z,13.42
2022-09-06T18:24:26.235Z,13.39
2022-09-06T18:26:54.634Z,13.35
2022-09-06T18:29:23.015Z,13.32
2022-09-06T18:31:54.294Z,13.30
2022-09-06T18:34:22.638Z,13.28
2022-09-06T18:36:50.863Z,13.26
2022-09-06T18:39:20.664Z,13.24
2022-09-06T18:42:01.221Z,13.22
2022-09-06T18:44:34.682Z,13.18
2022-09-06T18:47:05.777Z,13.17
2022-09-06T18:49:34.914Z,13.12
2022-09-06T18:52:05.651Z,13.10
2022-09-06T18:54:33.771Z,13.08
2022-09-06T18:57:01.897Z,13.05
2022-09-06T18:59:30.070Z,13.02
2022-09-06T19:01:58.574Z,12.99
2022-09-06T19:04:27.042Z,12.96
2022-09-06T19:06:55.202Z,12.92
2022-09-06T19:09:23.581Z,12.90
2022-09-06T19:11:53.495Z,12.87
2022-09-06T19:14:22.181Z,12.84
2022-09-06T19:16:51.958Z,12.80
2022-09-06T19:19:21.902Z,12.78
2022-09-06T19:21:50.205Z,12.75
2022-09-06T19:24:18.554Z,12.71
2022-09-06T19:26:47.264Z,12.69
2022-09-06T19:29:17.867Z,12.66
2022-09-06T19:31:47.505Z,12.62
2022-09-06T19:34:16.471Z,12.58
2022-09-06T19:36:45.153Z,12.56
2022-09-06T19:39:16.000Z,12.55
2022-09-06T19:41:47.029Z,12.53
2022-09-06T19:44:17.133Z,12.49
2022-09-06T19:46:47.142Z,12.46
2022-09-06T19:49:17.328Z,12.43
2022-09-06T19:51:46.827Z,12.41
2022-09-06T19:54:15.929Z,12.39
2022-09-06T19:56:44.890Z,12.37
2022-09-06T19:59:14.828Z,12.35
2022-09-06T20:01:44.876Z,12.35
2022-09-06T20:04:14.635Z,12.34
2022-09-06T20:06:42.996Z,12.33
2022-09-06T20:09:11.778Z,12.34
2022-09-06T20:11:41.729Z,12.31
2022-09-06T20:14:11.766Z,12.31
2022-09-06T20:16:42.159Z,12.31
2022-09-06T20:19:12.753Z,12.30
2022-09-06T20:21:41.060Z,12.29
2022-09-06T20:24:09.314Z,12.28
2022-09-06T20:26:38.105Z,12.27
2022-09-06T20:29:06.940Z,12.26
2022-09-06T20:31:36.919Z,12.23
2022-09-06T20:34:06.770Z,12.22
2022-09-06T20:36:35.100Z,12.17
2022-09-06T20:39:04.316Z,12.13
2022-09-06T20:41:32.567Z,12.10
2022-09-06T20:44:01.151Z,12.09
2022-09-06T20:46:31.690Z,12.07
2022-09-06T20:49:03.989Z,12.05
2022-09-06T20:51:35.137Z,12.02
2022-09-06T20:54:05.330Z,11.99
2022-09-06T20:56:36.791Z,11.96
2022-09-06T20:59:08.736Z,11.93
2022-09-06T21:01:46.016Z,11.90
2022-09-06T21:04:16.709Z,11.86
2022-09-06T21:06:46.886Z,11.81
2022-09-06T21:09:15.731Z,11.76
2022-09-06T21:11:45.479Z,11.71
2022-09-06T21:14:14.047Z,11.66
2022-09-06T21:16:42.287Z,11.61
2022-09-06T21:19:11.662Z,11.56
2022-09-06T21:21:41.136Z,11.52
2022-09-06T21:24:11.099Z,11.46
2022-09-06T21:26:39.310Z,11.43
2022-09-06T21:29:07.483Z,11.41
2022-09-06T21:31:37.491Z,11.39
2022-09-06T21:34:16.166Z,11.36
2022-09-06T21:36:45.637Z,11.33
2022-09-06T21:39:14.913Z,11.29
2022-09-06T21:41:43.861Z,11.25
2022-09-06T21:44:13.319Z,11.19
2022-09-06T21:46:42.151Z,11.16
2022-09-06T21:49:13.150Z,11.13
2022-09-06T21:51:42.404Z,11.12
2022-09-06T21:54:10.926Z,11.09
2022-09-06T21:56:40.515Z,11.07
2022-09-06T21:59:09.928Z,11.05
2022-09-06T22:01:40.081Z,11.03
2022-09-06T22:04:08.958Z,11.01
2022-09-06T22:06:38.056Z,10.97
2022-09-06T22:09:12.044Z,10.94
2022-09-06T22:11:43.740Z,10.92
2022-09-06T22:14:13.917Z,10.90
2022-09-06T22:16:42.193Z,10.86
2022-09-06T22:19:11.338Z,10.84
2022-09-06T22:21:39.916Z,10.82
2022-09-06T22:24:10.410Z,10.80
2022-09-06T22:26:40.531Z,10.77
2022-09-06T22:29:11.050Z,10.74
2022-09-06T22:31:39.856Z,10.72
2022-09-06T22:34:08.108Z,10.70
2022-09-06T22:36:36.143Z,10.66
2022-09-06T22:39:04.654Z,10.65
2022-09-06T22:41:34.264Z,10.65
2022-09-06T22:44:03.405Z,10.65
2022-09-06T22:46:32.230Z,10.65
2022-09-06T22:49:00.947Z,10.64
2022-09-06T22:51:29.002Z,10.64
2022-09-06T22:53:57.172Z,10.64
2022-09-06T22:56:25.282Z,10.63
2022-09-06T22:58:53.422Z,10.62
2022-09-06T23:01:21.977Z,10.60
2022-09-06T23:03:50.941Z,10.59
2022-09-06T23:06:19.167Z,10.58
2022-09-06T23:08:47.343Z,10.58
2022-09-06T23:11:17.988Z,10.57
2022-09-06T23:13:47.247Z,10.55
2022-09-06T23:16:19.042Z,10.54
2022-09-06T23:18:47.867Z,10.52
2022-09-06T23:21:22.030Z,10.50
2022-09-06T23:23:51.886Z,10.49
2022-09-06T23:26:23.366Z,10.47
2022-09-06T23:28:56.698Z,10.46
2022-09-06T23:31:27.577Z,10.45
2022-09-06T23:33:57.560Z,10.45
2022-09-06T23:36:26.936Z,10.44
2022-09-06T23:38:56.185Z,10.44
2022-09-06T23:41:25.126Z,10.44
2022-09-06T23:43:53.383Z,10.44
2022-09-06T23:46:21.650Z,10.44
2022-09-06T23:48:49.955Z,10.44
2022-09-06T23:51:18.449Z,10.43
2022-09-06T23:53:47.018Z,10.41
2022-09-06T23:56:16.114Z,10.37
2022-09-06T23:58:44.182Z,10.34
